createdAt,value
2022-08-03T00:00:28.878Z,4.50
2022-08-03T00:02:55.896Z,4.07
2022-08-03T00:05:22.965Z,4.43
2022-08-03T00:07:49.849Z,4.67
2022-08-03T00:10:17.412Z,3.83
2022-08-03T00:12:44.397Z,4.33
2022-08-03T00:15:16.550Z,4.23
2022-08-03T00:17:52.461Z,5.10
2022-08-03T00:20:24.774Z,4.40
2022-08-03T00:22:52.262Z,4.80
2022-08-03T00:25:19.431Z,4.60
2022-08-03T00:27:48.328Z,3.80
2022-08-03T00:30:16.892Z,5.40
2022-08-03T00:32:45.315Z,3.97
2022-08-03T00:35:32.599Z,3.63
2022-08-03T00:37:59.942Z,4.23
2022-08-03T00:40:27.519Z,4.47
2022-08-03T00:43:02.965Z,4.63
2022-08-03T00:45:34.815Z,4.27
2022-08-03T00:48:02.510Z,4.03
2022-08-03T00:50:31.264Z,4.00
2022-08-03T00:52:59.560Z,4.20
2022-08-03T00:55:27.170Z,3.60
2022-08-03T00:57:54.424Z,3.73
2022-08-03T01:00:24.394Z,4.63
2022-08-03T01:02:52.665Z,4.50
2022-08-03T01:05:23.034Z,4.37
2022-08-03T01:08:21.550Z,4.40
2022-08-03T01:11:09.827Z,4.70
2022-08-03T01:14:18.955Z,4.20
2022-08-03T01:17:28.910Z,5.53
2022-08-03T01:20:11.694Z,4.50
2022-08-03T01:23:23.128Z,3.70
2022-08-03T01:26:19.776Z,3.57
2022-08-03T01:29:22.693Z,3.93
2022-08-03T01:32:58.630Z,3.97
2022-08-03T01:34:51.972Z,3.60
2022-08-03T01:37:26.566Z,3.70
2022-08-03T01:39:57.389Z,4.50
2022-08-03T01:42:26.187Z,4.03
2022-08-03T01:44:54.672Z,3.97
2022-08-03T01:47:24.158Z,4.63
2022-08-03T01:49:52.743Z,4.80
2022-08-03T01:52:21.199Z,5.07
2022-08-03T01:54:52.139Z,4.50
2022-08-03T01:57:22.546Z,4.47
2022-08-03T01:59:52.357Z,4.70
2022-08-03T02:02:34.195Z,4.50
2022-08-03T02:05:03.425Z,5.33
2022-08-03T02:07:33.047Z,5.10
2022-08-03T02:10:01.195Z,4.43
2022-08-03T02:12:30.205Z,4.90
2022-08-03T02:15:00.096Z,4.40
2022-08-03T02:17:39.193Z,5.20
2022-08-03T02:20:11.583Z,5.17
2022-08-03T02:22:42.842Z,5.13
2022-08-03T02:25:12.625Z,4.90
2022-08-03T02:27:52.846Z,4.47
2022-08-03T02:30:21.104Z,4.70
2022-08-03T02:32:55.574Z,4.60
2022-08-03T02:35:28.210Z,4.50
2022-08-03T02:38:01.106Z,4.60
2022-08-03T02:40:31.012Z,4.73
2022-08-03T02:43:05.286Z,5.33
2022-08-03T02:45:36.008Z,5.00
2022-08-03T02:48:05.459Z,5.40
2022-08-03T02:50:35.223Z,4.70
2022-08-03T02:53:03.450Z,4.73
2022-08-03T02:55:33.569Z,4.93
2022-08-03T02:58:02.406Z,4.70
2022-08-03T03:00:35.278Z,4.43
2022-08-03T03:03:04.334Z,4.90
2022-08-03T03:05:55.590Z,5.63
2022-08-03T03:08:26.890Z,4.43
2022-08-03T03:11:00.382Z,5.00
2022-08-03T03:13:31.410Z,4.50
2022-08-03T03:16:03.888Z,4.90
2022-08-03T03:18:33.234Z,4.77
2022-08-03T03:21:02.767Z,4.40
2022-08-03T03:23:30.645Z,4.73
2022-08-03T03:25:59.052Z,4.67
2022-08-03T03:28:26.488Z,4.00
2022-08-03T03:30:53.785Z,4.27
2022-08-03T03:33:22.411Z,4.13
2022-08-03T03:35:50.184Z,4.50
2022-08-03T03:38:17.264Z,4.37
2022-08-03T03:40:44.348Z,4.40
2022-08-03T03:43:12.624Z,4.80
2022-08-03T03:45:42.760Z,4.60
2022-08-03T03:48:09.788Z,4.70
2022-08-03T03:50:40.116Z,4.50
2022-08-03T03:53:13.468Z,4.50
2022-08-03T03:55:59.086Z,5.13
2022-08-03T03:58:28.315Z,5.40
2022-08-03T04:00:55.434Z,5.50
2022-08-03T04:03:22.521Z,6.17
2022-08-03T04:06:08.051Z,5.60
2022-08-03T04:08:53.612Z,5.30
2022-08-03T04:11:40.840Z,6.13
2022-08-03T04:14:15.077Z,5.37
2022-08-03T04:16:49.010Z,5.17
2022-08-03T04:19:24.830Z,5.27
2022-08-03T04:21:57.019Z,4.73
2022-08-03T04:24:27.019Z,5.27
2022-08-03T04:26:55.485Z,4.80
2022-08-03T04:29:24.469Z,4.67
2022-08-03T04:31:53.824Z,4.13
2022-08-03T04:34:20.939Z,4.03
2022-08-03T04:36:53.200Z,4.50
2022-08-03T04:39:27.766Z,4.37
2022-08-03T04:42:07.831Z,4.00
2022-08-03T04:44:42.563Z,4.70
2022-08-03T04:47:09.623Z,4.40
2022-08-03T04:49:38.112Z,3.83
2022-08-03T04:52:07.364Z,4.20
2022-08-03T04:54:50.317Z,3.67
2022-08-03T04:57:22.265Z,4.07
2022-08-03T05:00:01.325Z,3.70
2022-08-03T05:02:30.360Z,4.50
2022-08-03T05:04:57.393Z,3.13
2022-08-03T05:07:25.075Z,3.83
2022-08-03T05:09:57.654Z,3.30
2022-08-03T05:12:32.759Z,3.20
2022-08-03T05:15:00.788Z,3.10
2022-08-03T05:17:28.645Z,3.33
2022-08-03T05:19:55.929Z,3.30
2022-08-03T05:22:23.267Z,3.13
2022-08-03T05:24:50.170Z,3.17
2022-08-03T05:27:20.394Z,3.00
2022-08-03T05:29:50.858Z,3.00
2022-08-03T05:32:20.557Z,3.03
2022-08-03T05:34:47.738Z,2.80
2022-08-03T05:37:14.730Z,2.73
2022-08-03T05:39:41.773Z,2.70
2022-08-03T05:42:08.723Z,2.50
2022-08-03T05:44:38.785Z,2.63
2022-08-03T05:47:06.423Z,3.00
2022-08-03T05:49:33.736Z,2.43
2022-08-03T05:52:11.973Z,2.03
2022-08-03T05:54:57.421Z,2.40
2022-08-03T05:57:25.879Z,2.40
2022-08-03T05:59:53.817Z,2.63
2022-08-03T06:02:25.595Z,3.10
2022-08-03T06:04:52.588Z,2.30
2022-08-03T06:07:19.556Z,2.57
2022-08-03T06:10:34.041Z,2.57
2022-08-03T06:12:36.440Z,2.30
2022-08-03T06:15:05.249Z,2.50
2022-08-03T06:17:37.478Z,2.80
2022-08-03T06:20:05.968Z,2.90
2022-08-03T06:22:32.845Z,2.20
2022-08-03T06:25:04.209Z,2.00
2022-08-03T06:27:37.408Z,1.52
2022-08-03T06:30:05.767Z,1.88
2022-08-03T06:32:35.131Z,1.83
2022-08-03T06:35:02.112Z,2.10
2022-08-03T06:37:29.271Z,2.00
2022-08-03T06:39:56.384Z,1.60
2022-08-03T06:42:23.514Z,1.95
2022-08-03T06:44:52.180Z,1.50
2022-08-03T06:47:19.172Z,1.50
2022-08-03T06:50:12.673Z,2.00
2022-08-03T06:52:37.908Z,1.38
2022-08-03T06:55:06.572Z,1.42
2022-08-03T06:57:33.797Z,1.50
2022-08-03T07:00:07.865Z,1.50
2022-08-03T07:02:39.725Z,1.65
2022-08-03T07:05:07.984Z,1.08
2022-08-03T07:07:35.000Z,1.90
2022-08-03T07:10:02.426Z,1.70
2022-08-03T07:12:30.263Z,1.08
2022-08-03T07:15:01.388Z,1.30
2022-08-03T07:17:35.362Z,1.25
2022-08-03T07:20:04.980Z,1.42
2022-08-03T07:22:31.981Z,1.33
2022-08-03T07:24:58.967Z,1.58
2022-08-03T07:27:29.915Z,1.20
2022-08-03T07:29:59.674Z,1.00
2022-08-03T07:32:27.123Z,1.00
2022-08-03T07:34:58.460Z,1.17
2022-08-03T07:37:28.992Z,1.75
2022-08-03T07:39:56.056Z,1.20
2022-08-03T07:42:24.103Z,1.10
2022-08-03T07:44:51.120Z,0.95
2022-08-03T07:47:25.104Z,1.38
2022-08-03T07:50:01.659Z,1.17
2022-08-03T07:52:46.993Z,1.10
2022-08-03T07:55:14.757Z,1.08
2022-08-03T07:57:44.196Z,3.03
2022-08-03T08:00:19.345Z,1.20
2022-08-03T08:02:46.716Z,1.60
2022-08-03T08:05:13.705Z,1.10
2022-08-03T08:07:41.343Z,0.82
2022-08-03T08:10:10.351Z,1.60
2022-08-03T08:12:38.845Z,1.33
2022-08-03T08:15:08.241Z,1.38
2022-08-03T08:17:53.551Z,1.70
2022-08-03T08:20:31.309Z,1.88
2022-08-03T08:23:18.592Z,1.80
2022-08-03T08:25:52.372Z,1.75
2022-08-03T08:28:30.891Z,1.70
2022-08-03T08:31:00.361Z,1.77
2022-08-03T08:33:42.090Z,1.35
2022-08-03T08:36:15.880Z,1.42
2022-08-03T08:38:45.109Z,1.90
2022-08-03T08:41:14.273Z,1.73
2022-08-03T08:43:41.954Z,1.50
2022-08-03T08:46:12.722Z,1.20
2022-08-03T08:48:42.412Z,3.28
2022-08-03T08:51:12.057Z,1.00
2022-08-03T08:53:44.118Z,0.85
2022-08-03T08:56:17.556Z,1.13
2022-08-03T08:59:00.446Z,1.05
2022-08-03T09:01:28.121Z,1.23
2022-08-03T09:03:55.501Z,1.08
2022-08-03T09:06:23.553Z,1.10
2022-08-03T09:08:50.584Z,1.27
2022-08-03T09:11:22.222Z,1.27
2022-08-03T09:14:36.997Z,1.35
2022-08-03T09:17:03.934Z,1.77
2022-08-03T09:19:36.241Z,1.17
2022-08-03T09:22:17.554Z,1.38
2022-08-03T09:25:23.175Z,1.65
2022-08-03T09:27:50.653Z,1.13
2022-08-03T09:30:34.549Z,1.17
2022-08-03T09:33:05.568Z,1.35
2022-08-03T09:35:52.985Z,1.25
2022-08-03T09:38:26.248Z,1.00
2022-08-03T09:40:59.236Z,1.80
2022-08-03T09:43:27.808Z,1.00
2022-08-03T09:46:07.742Z,1.30
2022-08-03T09:48:37.489Z,1.30
2022-08-03T09:51:13.111Z,1.20
2022-08-03T09:53:58.463Z,1.23
2022-08-03T09:56:39.149Z,1.17
2022-08-03T09:59:06.161Z,1.58
2022-08-03T10:01:37.617Z,1.08
2022-08-03T10:04:05.453Z,1.08
2022-08-03T10:06:33.365Z,1.27
2022-08-03T10:09:12.945Z,1.10
2022-08-03T10:11:42.628Z,1.58
2022-08-03T10:14:20.957Z,1.55
2022-08-03T10:16:48.680Z,1.33
2022-08-03T10:19:16.384Z,1.17
2022-08-03T10:21:50.938Z,1.70
2022-08-03T10:24:24.321Z,1.27
2022-08-03T10:26:52.756Z,1.30
2022-08-03T10:29:24.889Z,0.90
2022-08-03T10:31:59.814Z,0.93
2022-08-03T10:34:34.169Z,1.02
2022-08-03T10:37:10.047Z,4.57
2022-08-03T10:39:37.162Z,1.38
2022-08-03T10:42:05.775Z,0.93
2022-08-03T10:44:42.454Z,1.42
2022-08-03T10:47:11.634Z,1.52
2022-08-03T10:49:39.079Z,1.20
2022-08-03T10:52:13.313Z,1.55
2022-08-03T10:55:12.554Z,1.02
2022-08-03T10:57:56.184Z,1.17
2022-08-03T11:00:27.620Z,1.50
2022-08-03T11:03:17.198Z,1.15
2022-08-03T11:05:47.108Z,1.17
2022-08-03T11:08:28.838Z,0.73
2022-08-03T11:11:28.684Z,1.25
2022-08-03T11:14:19.976Z,1.17
2022-08-03T11:17:05.934Z,1.13
2022-08-03T11:19:56.563Z,1.30
2022-08-03T11:22:26.033Z,0.98
2022-08-03T11:25:02.231Z,1.38
2022-08-03T11:27:31.340Z,0.90
2022-08-03T11:30:21.863Z,1.23
2022-08-03T11:32:58.942Z,1.20
2022-08-03T11:35:38.604Z,1.05
2022-08-03T11:38:08.031Z,1.00
2022-08-03T11:40:49.376Z,0.93
2022-08-03T11:43:51.666Z,0.90
2022-08-03T11:46:29.423Z,1.00
2022-08-03T11:49:09.841Z,1.60
2022-08-03T11:51:38.855Z,1.02
2022-08-03T11:54:06.979Z,1.13
2022-08-03T11:56:48.340Z,1.52
2022-08-03T11:59:18.754Z,1.40
2022-08-03T12:01:48.015Z,1.00
2022-08-03T12:04:16.366Z,1.10
2022-08-03T12:06:59.265Z,1.10
2022-08-03T12:09:26.232Z,0.98
2022-08-03T12:12:00.636Z,0.98
2022-08-03T12:14:50.112Z,1.30
2022-08-03T12:17:20.339Z,0.80
2022-08-03T12:19:47.910Z,0.90
2022-08-03T12:22:16.863Z,0.70
2022-08-03T12:24:46.713Z,1.08
2022-08-03T12:27:23.888Z,1.63
2022-08-03T12:29:57.294Z,0.90
2022-08-03T12:32:27.872Z,1.10
2022-08-03T12:35:00.823Z,1.50
2022-08-03T12:37:31.245Z,0.82
2022-08-03T12:40:07.790Z,1.05
2022-08-03T12:42:39.170Z,1.00
2022-08-03T12:45:27.198Z,0.90
2022-08-03T12:47:56.726Z,1.00
2022-08-03T12:50:34.522Z,0.82
2022-08-03T12:53:04.760Z,0.73
2022-08-03T12:55:40.193Z,0.70
2022-08-03T12:58:36.441Z,0.85
2022-08-03T13:01:09.758Z,1.00
2022-08-03T13:03:50.443Z,1.00
2022-08-03T13:06:27.464Z,0.70
2022-08-03T13:09:08.380Z,0.90
2022-08-03T13:11:57.231Z,0.80
2022-08-03T13:14:23.643Z,0.82
2022-08-03T13:16:51.163Z,1.00
2022-08-03T13:19:18.168Z,0.90
2022-08-03T13:22:01.715Z,0.80
2022-08-03T13:24:32.489Z,1.00
2022-08-03T13:27:00.149Z,1.00
2022-08-03T13:29:27.098Z,0.90
2022-08-03T13:31:54.548Z,1.00
2022-08-03T13:34:23.965Z,1.00
2022-08-03T13:37:08.532Z,0.80
2022-08-03T13:39:48.293Z,0.95
2022-08-03T13:42:23.832Z,0.73
2022-08-03T13:44:50.885Z,0.90
2022-08-03T13:47:17.921Z,0.70
2022-08-03T13:50:00.344Z,1.00
2022-08-03T13:52:30.638Z,1.08
2022-08-03T13:54:57.673Z,0.82
2022-08-03T13:58:03.295Z,1.00
2022-08-03T14:00:12.705Z,0.82
2022-08-03T14:02:56.176Z,0.90
2022-08-03T14:05:25.549Z,1.15
2022-08-03T14:07:52.504Z,1.08
2022-08-03T14:10:25.272Z,1.02
2022-08-03T14:12:52.277Z,0.85
2022-08-03T14:15:22.651Z,0.98
2022-08-03T14:17:50.253Z,0.75
2022-08-03T14:20:38.701Z,1.25
2022-08-03T14:23:04.469Z,0.95
2022-08-03T14:25:42.977Z,1.45
2022-08-03T14:28:11.537Z,1.00
2022-08-03T14:30:38.816Z,1.40
2022-08-03T14:33:06.322Z,1.10
2022-08-03T14:35:33.338Z,1.30
2022-08-03T14:38:00.436Z,1.80
2022-08-03T14:40:27.554Z,1.00
2022-08-03T14:42:57.485Z,1.42
2022-08-03T14:45:24.500Z,0.90
2022-08-03T14:50:31.597Z,1.00
2022-08-03T14:50:44.185Z,1.10
2022-08-03T14:53:12.637Z,1.00
2022-08-03T14:55:49.427Z,1.38
2022-08-03T14:58:22.000Z,2.00
2022-08-03T15:00:50.455Z,1.13
2022-08-03T15:03:20.475Z,0.98
2022-08-03T15:05:47.596Z,0.95
2022-08-03T15:08:14.538Z,0.90
2022-08-03T15:10:44.331Z,0.80
2022-08-03T15:13:15.533Z,1.25
2022-08-03T15:15:43.024Z,1.10
2022-08-03T15:18:10.047Z,1.13
2022-08-03T15:20:46.642Z,1.05
2022-08-03T15:23:15.413Z,0.82
2022-08-03T15:26:32.314Z,0.90
2022-08-03T15:28:31.180Z,1.20
2022-08-03T15:30:58.391Z,0.85
2022-08-03T15:33:25.478Z,1.00
2022-08-03T15:35:53.136Z,1.25
2022-08-03T15:38:22.994Z,1.17
2022-08-03T15:40:54.744Z,1.00
2022-08-03T15:43:22.583Z,0.90
2022-08-03T15:45:54.577Z,1.30
2022-08-03T15:48:26.383Z,0.73
2022-08-03T15:50:54.692Z,1.00
2022-08-03T15:53:22.746Z,1.00
2022-08-03T15:55:49.807Z,0.70
2022-08-03T15:59:10.876Z,1.50
2022-08-03T16:01:07.308Z,0.80
2022-08-03T16:03:34.723Z,0.90
2022-08-03T16:06:03.615Z,0.60
2022-08-03T16:08:31.319Z,1.35
2022-08-03T16:10:59.258Z,0.70
2022-08-03T16:14:13.588Z,1.08
2022-08-03T16:16:17.105Z,0.88
2022-08-03T16:18:44.182Z,1.17
2022-08-03T16:21:14.008Z,1.20
2022-08-03T16:23:47.082Z,0.73
2022-08-03T16:26:14.494Z,0.82
2022-08-03T16:28:41.575Z,1.00
2022-08-03T16:31:09.351Z,0.90
2022-08-03T16:33:36.769Z,1.00
2022-08-03T16:36:05.964Z,0.98
2022-08-03T16:38:33.159Z,0.80
2022-08-03T16:41:00.169Z,0.98
2022-08-03T16:43:27.218Z,0.90
2022-08-03T16:45:54.249Z,1.00
2022-08-03T16:48:21.373Z,1.10
2022-08-03T16:50:48.773Z,1.10
2022-08-03T16:53:33.558Z,1.00
2022-08-03T16:56:10.115Z,0.88
2022-08-03T16:58:42.823Z,0.85
2022-08-03T17:01:24.270Z,1.00
2022-08-03T17:04:01.393Z,1.08
2022-08-03T17:06:35.887Z,0.90
2022-08-03T17:09:10.775Z,1.13
2022-08-03T17:11:44.008Z,1.10
2022-08-03T17:14:21.860Z,1.10
2022-08-03T17:16:52.414Z,1.23
2022-08-03T17:19:23.790Z,1.10
2022-08-03T17:22:04.548Z,0.90
2022-08-03T17:24:41.520Z,1.00
2022-08-03T17:28:42.128Z,1.20
2022-08-03T17:30:14.980Z,1.33
2022-08-03T17:32:56.842Z,1.00
2022-08-03T17:35:34.226Z,0.97
2022-08-03T17:38:06.593Z,1.23
2022-08-03T17:40:38.041Z,1.00
2022-08-03T17:44:12.981Z,1.30
2022-08-03T17:45:55.054Z,0.90
2022-08-03T17:48:25.160Z,1.60
2022-08-03T17:51:00.305Z,1.27
2022-08-03T17:53:31.488Z,1.60
2022-08-03T17:56:44.332Z,1.13
2022-08-03T17:59:50.287Z,1.37
2022-08-03T18:03:00.255Z,2.00
2022-08-03T18:06:11.682Z,0.90
2022-08-03T18:08:38.375Z,1.23
2022-08-03T18:11:14.463Z,1.07
2022-08-03T18:14:16.257Z,1.17
2022-08-03T18:17:00.130Z,0.83
2022-08-03T18:20:02.050Z,1.00
2022-08-03T18:22:20.357Z,1.60
2022-08-03T18:24:50.106Z,1.43
2022-08-03T18:27:19.442Z,1.13
2022-08-03T18:29:47.103Z,1.23
2022-08-03T18:32:16.955Z,1.43
2022-08-03T18:34:53.375Z,1.10
2022-08-03T18:37:25.165Z,1.33
2022-08-03T18:39:57.996Z,1.00
2022-08-03T18:45:54.978Z,1.63
2022-08-03T18:48:49.206Z,1.20
2022-08-03T18:51:28.615Z,1.40
2022-08-03T18:54:46.028Z,1.30
2022-08-03T18:57:20.023Z,1.67
2022-08-03T19:00:05.675Z,1.60
2022-08-03T19:02:49.277Z,1.30
2022-08-03T19:05:19.717Z,1.20
2022-08-03T19:12:14.333Z,1.33
2022-08-03T19:14:37.560Z,1.10
2022-08-03T19:17:11.105Z,1.20
2022-08-03T19:19:43.444Z,1.60
2022-08-03T19:22:12.621Z,1.57
2022-08-03T19:24:45.300Z,1.00
2022-08-03T19:27:13.443Z,1.20
2022-08-03T19:32:34.933Z,1.33
2022-08-03T19:35:04.011Z,1.70
2022-08-03T19:37:33.145Z,1.40
2022-08-03T19:40:11.000Z,1.50
2022-08-03T19:42:44.578Z,1.27
2022-08-03T19:45:17.046Z,1.10
2022-08-03T19:47:56.991Z,1.17
2022-08-03T19:50:25.216Z,1.40
2022-08-03T19:52:53.585Z,1.40
2022-08-03T19:55:21.057Z,1.47
2022-08-03T19:57:53.855Z,1.73
2022-08-03T20:00:26.636Z,2.10
2022-08-03T20:02:58.194Z,1.53
2022-08-03T20:05:25.742Z,1.30
2022-08-03T20:07:54.243Z,1.40
2022-08-03T20:10:21.705Z,0.93
2022-08-03T20:12:49.782Z,1.27
2022-08-03T20:15:22.474Z,1.03
2022-08-03T20:17:59.567Z,1.77
2022-08-03T20:20:36.043Z,1.30
2022-08-03T20:23:18.122Z,2.13
2022-08-03T20:25:58.422Z,1.47
2022-08-03T20:28:50.251Z,2.40
2022-08-03T20:31:23.839Z,1.07
2022-08-03T20:34:03.252Z,1.40
2022-08-03T20:36:30.362Z,1.73
2022-08-03T20:38:58.208Z,1.17
2022-08-03T20:41:25.409Z,1.53
2022-08-03T20:43:52.906Z,1.27
2022-08-03T20:46:29.630Z,1.10
2022-08-03T20:49:04.132Z,1.70
2022-08-03T20:51:49.647Z,1.53
2022-08-03T20:57:11.916Z,1.70
2022-08-03T20:59:50.485Z,1.60
2022-08-03T21:02:30.426Z,2.03
2022-08-03T21:05:03.565Z,1.50
2022-08-03T21:08:05.782Z,1.83
2022-08-03T21:10:35.829Z,1.60
2022-08-03T21:13:02.300Z,1.00
2022-08-03T21:13:05.926Z,1.03
2022-08-03T21:13:07.723Z,1.67
2022-08-03T21:13:10.336Z,1.03
2022-08-03T21:16:11.385Z,2.27
2022-08-03T21:18:48.758Z,2.43
2022-08-03T21:21:18.315Z,2.00
2022-08-03T21:23:53.191Z,2.43
2022-08-03T21:26:23.638Z,1.50
2022-08-03T21:28:53.568Z,1.60
2022-08-03T21:31:25.472Z,1.80
2022-08-03T21:33:58.384Z,2.10
2022-08-03T21:36:27.896Z,2.30
2022-08-03T21:38:57.400Z,2.57
2022-08-03T21:41:32.113Z,1.80
2022-08-03T21:44:00.615Z,1.77
2022-08-03T21:46:33.791Z,1.70
2022-08-03T21:50:05.608Z,1.60
2022-08-03T21:51:53.259Z,2.17
2022-08-03T21:54:21.782Z,2.07
2022-08-03T21:56:51.898Z,2.57
2022-08-03T21:59:20.523Z,2.00
2022-08-03T22:01:51.489Z,2.10
2022-08-03T22:04:50.445Z,1.70
2022-08-03T22:07:10.398Z,1.87
2022-08-03T22:09:38.450Z,2.10
2022-08-03T22:12:06.635Z,1.80
2022-08-03T22:14:33.843Z,1.70
2022-08-03T22:17:11.567Z,2.00
2022-08-03T22:19:38.628Z,1.53
2022-08-03T22:22:09.885Z,1.47
2022-08-03T22:24:37.097Z,1.43
2022-08-03T22:27:27.104Z,1.50
2022-08-03T22:29:54.470Z,2.10
2022-08-03T22:32:21.531Z,1.80
2022-08-03T22:34:49.527Z,2.50
2022-08-03T22:37:19.437Z,2.90
2022-08-03T22:39:46.877Z,1.90
2022-08-03T22:42:14.241Z,14.63
2022-08-03T22:44:41.162Z,8.80
2022-08-03T22:47:10.250Z,4.13
2022-08-03T22:49:38.135Z,3.07
2022-08-03T22:52:07.942Z,1.93
2022-08-03T22:54:36.805Z,2.17
2022-08-03T22:57:04.920Z,1.63
2022-08-03T22:59:40.729Z,2.83
2022-08-03T23:02:21.242Z,2.30
2022-08-03T23:05:03.158Z,2.70
2022-08-03T23:07:37.118Z,2.33
2022-08-03T23:10:11.909Z,2.00
2022-08-03T23:12:40.064Z,3.10
2022-08-03T23:15:12.192Z,2.20
2022-08-03T23:17:58.236Z,2.23
2022-08-03T23:20:26.996Z,2.20
2022-08-03T23:22:58.037Z,2.57
2022-08-03T23:25:25.604Z,2.00
2022-08-03T23:28:04.960Z,2.50
2022-08-03T23:30:39.846Z,2.40
2022-08-03T23:33:11.921Z,2.33
2022-08-03T23:36:28.061Z,3.07
2022-08-03T23:38:47.808Z,2.97
2022-08-03T23:41:17.186Z,2.67
2022-08-03T23:43:51.853Z,2.40
2022-08-03T23:46:22.846Z,3.03
2022-08-03T23:48:51.055Z,2.93
2022-08-03T23:51:36.500Z,3.83
2022-08-03T23:54:09.907Z,3.70
2022-08-03T23:57:05.701Z,3.00
